createdAt,value
2022-08-26T00:00:50.394Z,78.55
2022-08-26T00:01:50.441Z,79.05
2022-08-26T00:02:51.444Z,78.16
2022-08-26T00:03:51.396Z,78.66
2022-08-26T00:04:50.350Z,78.66
2022-08-26T00:05:51.279Z,78.66
2022-08-26T00:06:51.384Z,78.45
2022-08-26T00:07:50.316Z,77.95
2022-08-26T00:08:51.285Z,78.05
2022-08-26T00:09:54.383Z,78.36
2022-08-26T00:10:51.279Z,78.45
2022-08-26T00:11:50.288Z,78.25
2022-08-26T00:12:50.289Z,78.36
2022-08-26T00:13:50.265Z,77.86
2022-08-26T00:14:50.252Z,78.25
2022-08-26T00:15:50.235Z,78.25
2022-08-26T00:16:52.821Z,78.05
2022-08-26T00:17:50.214Z,78.05
2022-08-26T00:18:50.329Z,78.05
2022-08-26T00:19:50.197Z,77.66
2022-08-26T00:20:56.783Z,77.75
2022-08-26T00:21:50.785Z,78.36
2022-08-26T00:22:56.795Z,78.55
2022-08-26T00:23:50.155Z,78.45
2022-08-26T00:24:50.182Z,78.36
2022-08-26T00:25:50.127Z,78.36
2022-08-26T00:26:50.777Z,77.56
2022-08-26T00:27:50.099Z,77.75
2022-08-26T00:28:50.091Z,77.66
2022-08-26T00:29:50.090Z,77.66
2022-08-26T00:30:52.099Z,78.45
2022-08-26T00:31:50.133Z,78.05
2022-08-26T00:32:50.045Z,78.25
2022-08-26T00:33:50.040Z,78.16
2022-08-26T00:34:50.032Z,78.05
2022-08-26T00:35:50.040Z,78.36
2022-08-26T00:36:51.851Z,78.55
2022-08-26T00:37:49.987Z,78.16
2022-08-26T00:38:50.785Z,78.16
2022-08-26T00:39:50.046Z,78.25
2022-08-26T00:40:50.323Z,78.55
2022-08-26T00:41:49.971Z,78.25
2022-08-26T00:42:56.792Z,78.25
2022-08-26T00:43:49.933Z,78.66
2022-08-26T00:44:49.922Z,78.36
2022-08-26T00:45:49.916Z,79.19
2022-08-26T00:46:50.992Z,79.19
2022-08-26T00:47:49.886Z,78.59
2022-08-26T00:48:50.908Z,78.99
2022-08-26T00:49:49.872Z,79.89
2022-08-26T00:50:49.870Z,79.59
2022-08-26T00:51:49.854Z,79.39
2022-08-26T00:52:49.827Z,80.09
2022-08-26T00:53:50.832Z,79.79
2022-08-26T00:54:50.787Z,79.69
2022-08-26T00:55:49.828Z,79.79
2022-08-26T00:56:49.779Z,79.89
2022-08-26T00:57:49.785Z,79.89
2022-08-26T00:58:52.288Z,79.49
2022-08-26T00:59:49.759Z,80.29
2022-08-26T01:00:52.323Z,80.53
2022-08-26T01:01:49.809Z,80.83
2022-08-26T01:02:49.723Z,80.93
2022-08-26T01:03:50.311Z,80.83
2022-08-26T01:04:55.596Z,80.83
2022-08-26T01:05:50.693Z,80.43
2022-08-26T01:06:49.699Z,80.93
2022-08-26T01:07:49.840Z,81.13
2022-08-26T01:08:49.652Z,80.33
2022-08-26T01:09:49.691Z,81.03
2022-08-26T01:10:50.296Z,80.69
2022-08-26T01:11:49.840Z,80.83
2022-08-26T01:12:49.620Z,80.89
2022-08-26T01:13:49.615Z,80.83
2022-08-26T01:14:49.885Z,80.83
2022-08-26T01:15:49.600Z,80.83
2022-08-26T01:16:50.357Z,80.83
2022-08-26T01:17:49.568Z,80.33
2022-08-26T01:18:49.577Z,80.03
2022-08-26T01:19:49.547Z,80.63
2022-08-26T01:20:49.531Z,80.77
2022-08-26T01:21:49.517Z,79.67
2022-08-26T01:22:49.545Z,80.07
2022-08-26T01:23:49.499Z,80.67
2022-08-26T01:24:49.486Z,80.36
2022-08-26T01:25:49.470Z,81.07
2022-08-26T01:26:50.304Z,81.47
2022-08-26T01:27:49.452Z,81.47
2022-08-26T01:28:51.719Z,80.57
2022-08-26T01:29:50.301Z,81.21
2022-08-26T01:30:50.301Z,81.30
2022-08-26T01:31:50.374Z,81.11
2022-08-26T01:32:49.403Z,83.01
2022-08-26T01:33:49.833Z,83.01
2022-08-26T01:34:49.373Z,82.31
2022-08-26T01:35:51.347Z,82.05
2022-08-26T01:36:51.429Z,82.05
2022-08-26T01:37:50.432Z,82.05
2022-08-26T01:38:50.325Z,81.95
2022-08-26T01:39:49.453Z,81.91
2022-08-26T01:40:50.410Z,82.61
2022-08-26T01:41:53.561Z,81.91
2022-08-26T01:42:49.292Z,81.30
2022-08-26T01:43:49.287Z,81.71
2022-08-26T01:44:49.297Z,81.55
2022-08-26T01:45:49.302Z,82.05
2022-08-26T01:46:49.243Z,82.49
2022-08-26T01:47:49.259Z,82.79
2022-08-26T01:48:52.415Z,82.69
2022-08-26T01:49:49.246Z,82.45
2022-08-26T01:50:49.342Z,83.15
2022-08-26T01:51:49.206Z,82.75
2022-08-26T01:52:51.666Z,83.05
2022-08-26T01:53:50.164Z,83.15
2022-08-26T01:54:50.544Z,81.95
2022-08-26T01:55:49.330Z,82.75
2022-08-26T01:57:10.820Z,82.05
2022-08-26T01:57:49.166Z,82.35
2022-08-26T01:58:49.841Z,81.95
2022-08-26T01:59:49.106Z,81.95
2022-08-26T02:00:49.274Z,81.24
2022-08-26T02:01:49.799Z,81.15
2022-08-26T02:02:49.073Z,81.35
2022-08-26T02:03:49.057Z,81.04
2022-08-26T02:04:49.104Z,82.05
2022-08-26T02:05:51.433Z,82.35
2022-08-26T02:06:49.099Z,82.05
2022-08-26T02:07:49.023Z,82.45
2022-08-26T02:08:48.996Z,82.55
2022-08-26T02:09:48.992Z,83.15
2022-08-26T02:10:49.043Z,83.15
2022-08-26T02:11:51.057Z,83.15
2022-08-26T02:12:48.974Z,82.55
2022-08-26T02:13:48.957Z,83.05
2022-08-26T02:14:51.804Z,83.85
2022-08-26T02:15:49.946Z,83.45
2022-08-26T02:16:48.904Z,84.25
2022-08-26T02:17:54.323Z,84.25
2022-08-26T02:18:48.885Z,83.99
2022-08-26T02:19:48.884Z,84.69
2022-08-26T02:20:51.525Z,84.49
2022-08-26T02:21:51.328Z,84.29
2022-08-26T02:22:49.807Z,84.09
2022-08-26T02:23:49.347Z,84.49
2022-08-26T02:24:48.824Z,84.49
2022-08-26T02:25:48.807Z,83.99
2022-08-26T02:26:48.829Z,84.23
2022-08-26T02:27:48.782Z,84.43
2022-08-26T02:28:48.777Z,84.53
2022-08-26T02:29:48.757Z,84.74
2022-08-26T02:30:48.775Z,84.93
2022-08-26T02:31:48.888Z,84.89
2022-08-26T02:32:49.625Z,84.43
2022-08-26T02:33:48.722Z,84.23
2022-08-26T02:34:48.741Z,84.53
2022-08-26T02:35:49.314Z,84.83
2022-08-26T02:36:48.693Z,84.74
2022-08-26T02:37:49.309Z,85.03
2022-08-26T02:38:56.371Z,84.93
2022-08-26T02:39:48.909Z,84.83
2022-08-26T02:40:48.645Z,84.13
2022-08-26T02:41:48.637Z,84.93
2022-08-26T02:42:48.631Z,84.93
2022-08-26T02:43:48.614Z,84.13
2022-08-26T02:44:48.609Z,84.93
2022-08-26T02:45:48.632Z,84.93
2022-08-26T02:46:48.608Z,85.24
2022-08-26T02:47:48.598Z,85.13
2022-08-26T02:48:55.314Z,85.27
2022-08-26T02:49:48.554Z,85.94
2022-08-26T02:50:48.535Z,86.28
2022-08-26T02:51:48.558Z,86.18
2022-08-26T02:52:51.306Z,86.38
2022-08-26T02:53:48.519Z,86.18
2022-08-26T02:54:49.645Z,86.48
2022-08-26T02:55:48.490Z,86.18
2022-08-26T02:56:48.469Z,86.48
2022-08-26T02:57:49.866Z,86.42
2022-08-26T02:58:51.313Z,86.22
2022-08-26T02:59:48.447Z,85.41
2022-08-26T03:00:49.299Z,85.31
2022-08-26T03:01:50.355Z,85.52
2022-08-26T03:02:48.401Z,86.02
2022-08-26T03:03:48.426Z,86.72
2022-08-26T03:04:57.754Z,86.72
2022-08-26T03:05:49.376Z,86.62
2022-08-26T03:06:52.961Z,86.52
2022-08-26T03:07:50.331Z,86.62
2022-08-26T03:08:48.340Z,86.72
2022-08-26T03:09:48.330Z,86.62
2022-08-26T03:10:48.328Z,86.42
2022-08-26T03:11:48.344Z,86.52
2022-08-26T03:12:48.822Z,86.32
2022-08-26T03:13:50.813Z,86.42
2022-08-26T03:14:48.292Z,86.36
2022-08-26T03:15:48.335Z,86.66
2022-08-26T03:16:48.443Z,87.21
2022-08-26T03:17:48.350Z,87.60
2022-08-26T03:18:52.258Z,87.71
2022-08-26T03:19:52.885Z,88.27
2022-08-26T03:21:10.221Z,88.37
2022-08-26T03:21:48.225Z,87.06
2022-08-26T03:22:48.835Z,87.01
2022-08-26T03:23:48.822Z,87.51
2022-08-26T03:25:09.187Z,87.10
2022-08-26T03:25:48.818Z,88.21
2022-08-26T03:26:52.981Z,87.51
2022-08-26T03:27:48.360Z,87.60
2022-08-26T03:28:48.154Z,87.10
2022-08-26T03:29:49.519Z,87.51
2022-08-26T03:30:48.111Z,88.15
2022-08-26T03:31:48.135Z,88.35
2022-08-26T03:32:48.100Z,88.85
2022-08-26T03:33:48.084Z,89.06
2022-08-26T03:34:48.094Z,89.46
2022-08-26T03:35:50.565Z,89.15
2022-08-26T03:36:48.838Z,89.15
2022-08-26T03:37:48.044Z,89.26
2022-08-26T03:38:48.031Z,88.65
2022-08-26T03:39:48.095Z,88.41
2022-08-26T03:40:49.071Z,87.51
2022-08-26T03:41:48.343Z,88.25
2022-08-26T03:42:47.991Z,88.35
2022-08-26T03:43:47.988Z,88.25
2022-08-26T03:44:47.969Z,88.15
2022-08-26T03:45:47.972Z,88.45
2022-08-26T03:46:48.013Z,88.65
2022-08-26T03:47:47.928Z,89.42
2022-08-26T03:48:47.928Z,88.61
2022-08-26T03:49:48.851Z,88.81
2022-08-26T03:50:48.937Z,88.95
2022-08-26T03:51:47.888Z,88.65
2022-08-26T03:52:48.373Z,88.85
2022-08-26T03:53:47.897Z,89.36
2022-08-26T03:54:55.850Z,88.75
2022-08-26T03:55:52.029Z,88.65
2022-08-26T03:56:50.820Z,88.85
2022-08-26T03:57:48.934Z,89.26
2022-08-26T03:58:47.825Z,89.36
2022-08-26T03:59:50.328Z,88.75
2022-08-26T04:00:55.381Z,88.55
2022-08-26T04:01:49.034Z,88.65
2022-08-26T04:02:47.820Z,89.46
2022-08-26T04:03:47.765Z,89.26
2022-08-26T04:04:50.329Z,88.65
2022-08-26T04:05:48.810Z,89.36
2022-08-26T04:06:47.976Z,89.46
2022-08-26T04:07:47.726Z,89.26
2022-08-26T04:08:47.703Z,89.90
2022-08-26T04:09:47.738Z,90.11
2022-08-26T04:10:47.685Z,89.50
2022-08-26T04:11:47.688Z,90.11
2022-08-26T04:12:47.662Z,89.80
2022-08-26T04:13:48.329Z,89.90
2022-08-26T04:14:50.372Z,90.00
2022-08-26T04:15:47.956Z,90.11
2022-08-26T04:16:47.618Z,89.50
2022-08-26T04:17:47.625Z,89.36
2022-08-26T04:18:47.626Z,89.40
2022-08-26T04:19:47.589Z,90.11
2022-08-26T04:20:47.573Z,90.00
2022-08-26T04:21:50.332Z,90.11
2022-08-26T04:22:47.570Z,90.16
2022-08-26T04:23:48.596Z,89.90
2022-08-26T04:24:47.533Z,90.06
2022-08-26T04:25:50.334Z,89.90
2022-08-26T04:26:47.540Z,89.70
2022-08-26T04:27:47.513Z,89.80
2022-08-26T04:28:47.496Z,90.00
2022-08-26T04:29:51.429Z,89.40
2022-08-26T04:30:49.333Z,89.84
2022-08-26T04:31:47.465Z,89.95
2022-08-26T04:32:47.465Z,89.90
2022-08-26T04:33:49.766Z,89.95
2022-08-26T04:34:48.344Z,90.45
2022-08-26T04:35:47.431Z,90.65
2022-08-26T04:36:47.404Z,90.34
2022-08-26T04:37:49.361Z,90.65
2022-08-26T04:38:47.371Z,90.79
2022-08-26T04:39:47.434Z,91.30
2022-08-26T04:41:02.330Z,91.25
2022-08-26T04:41:47.336Z,90.95
2022-08-26T04:42:47.341Z,90.95
2022-08-26T04:43:47.364Z,91.66
2022-08-26T04:44:47.320Z,91.35
2022-08-26T04:45:47.319Z,90.95
2022-08-26T04:46:47.320Z,91.46
2022-08-26T04:47:47.314Z,91.35
2022-08-26T04:48:47.273Z,90.99
2022-08-26T04:49:47.295Z,91.35
2022-08-26T04:50:47.249Z,91.35
2022-08-26T04:51:49.851Z,91.46
2022-08-26T04:52:47.837Z,91.15
2022-08-26T04:53:47.229Z,92.30
2022-08-26T04:54:47.358Z,92.30
2022-08-26T04:55:48.529Z,92.30
2022-08-26T04:56:47.197Z,92.50
2022-08-26T04:57:47.180Z,92.60
2022-08-26T04:58:47.168Z,93.46
2022-08-26T04:59:47.197Z,93.11
2022-08-26T05:00:47.153Z,93.51
2022-08-26T05:01:47.160Z,93.31
2022-08-26T05:02:47.144Z,93.51
2022-08-26T05:03:47.146Z,93.21
2022-08-26T05:04:53.840Z,93.31
2022-08-26T05:05:47.115Z,93.01
2022-08-26T05:06:47.082Z,93.31
2022-08-26T05:07:47.089Z,93.07
2022-08-26T05:08:47.060Z,94.42
2022-08-26T05:09:49.836Z,94.27
2022-08-26T05:10:49.840Z,94.12
2022-08-26T05:11:52.143Z,94.12
2022-08-26T05:12:47.015Z,94.32
2022-08-26T05:13:47.021Z,93.81
2022-08-26T05:14:46.994Z,94.01
2022-08-26T05:15:47.049Z,94.01
2022-08-26T05:16:47.755Z,94.12
2022-08-26T05:17:46.976Z,93.77
2022-08-26T05:18:47.845Z,94.32
2022-08-26T05:19:46.938Z,94.07
2022-08-26T05:20:46.946Z,94.42
2022-08-26T05:21:47.850Z,94.82
2022-08-26T05:22:49.838Z,95.42
2022-08-26T05:23:46.887Z,96.13
2022-08-26T05:24:46.907Z,96.23
2022-08-26T05:25:46.877Z,96.48
2022-08-26T05:26:46.910Z,96.43
2022-08-26T05:27:46.848Z,96.73
2022-08-26T05:28:46.833Z,96.33
2022-08-26T05:29:46.821Z,96.43
2022-08-26T05:30:47.874Z,96.73
2022-08-26T05:31:46.831Z,97.03
2022-08-26T05:32:46.834Z,97.84
2022-08-26T05:33:46.779Z,98.24
2022-08-26T05:34:46.778Z,98.14
2022-08-26T05:35:46.761Z,98.94
2022-08-26T05:36:46.759Z,98.34
2022-08-26T05:37:46.751Z,98.65
2022-08-26T05:38:46.730Z,98.50
2022-08-26T05:39:51.246Z,98.14
2022-08-26T05:40:46.705Z,98.10
2022-08-26T05:41:46.715Z,98.60
2022-08-26T05:42:47.729Z,98.39
2022-08-26T05:43:46.670Z,97.85
2022-08-26T05:44:55.527Z,97.85
2022-08-26T05:45:47.689Z,97.85
2022-08-26T05:46:46.765Z,98.65
2022-08-26T05:47:46.630Z,98.55
2022-08-26T05:48:46.619Z,98.45
2022-08-26T05:49:51.260Z,98.45
2022-08-26T05:50:47.593Z,98.35
2022-08-26T05:51:47.969Z,99.05
2022-08-26T05:52:46.580Z,99.05
2022-08-26T05:53:54.553Z,98.75
2022-08-26T05:54:47.739Z,99.66
2022-08-26T05:55:46.552Z,99.55
2022-08-26T05:56:46.552Z,99.35
2022-08-26T05:57:46.510Z,99.66
2022-08-26T05:58:46.516Z,99.55
2022-08-26T05:59:46.498Z,99.35
2022-08-26T06:00:46.510Z,99.26
2022-08-26T06:01:46.520Z,99.99
2022-08-26T06:02:48.381Z,99.99
2022-08-26T06:03:46.447Z,99.99
2022-08-26T06:04:46.444Z,99.99
2022-08-26T06:05:46.442Z,99.99
2022-08-26T06:06:46.443Z,99.99
2022-08-26T06:07:47.339Z,99.99
2022-08-26T06:08:46.422Z,99.99
2022-08-26T06:09:46.378Z,99.99
2022-08-26T06:10:46.374Z,99.99
2022-08-26T06:11:46.381Z,99.99
2022-08-26T06:12:46.373Z,99.99
2022-08-26T06:13:46.343Z,99.96
2022-08-26T06:14:47.325Z,99.99
2022-08-26T06:15:46.368Z,99.99
2022-08-26T06:16:46.318Z,99.99
2022-08-26T06:17:46.298Z,99.36
2022-08-26T06:18:46.295Z,99.62
2022-08-26T06:19:48.912Z,99.21
2022-08-26T06:20:57.395Z,99.32
2022-08-26T06:21:47.274Z,99.32
2022-08-26T06:22:46.246Z,99.32
2022-08-26T06:23:46.238Z,99.41
2022-08-26T06:24:46.213Z,99.11
2022-08-26T06:25:47.247Z,99.11
2022-08-26T06:26:46.842Z,99.27
2022-08-26T06:27:46.210Z,98.97
2022-08-26T06:28:46.179Z,98.97
2022-08-26T06:29:46.217Z,97.76
2022-08-26T06:30:46.163Z,98.02
2022-08-26T06:31:46.159Z,98.22
2022-08-26T06:32:46.177Z,98.32
2022-08-26T06:33:46.137Z,98.36
2022-08-26T06:34:46.139Z,98.07
2022-08-26T06:35:46.110Z,98.97
2022-08-26T06:36:46.168Z,98.36
2022-08-26T06:37:46.854Z,98.26
2022-08-26T06:38:46.078Z,98.46
2022-08-26T06:39:46.061Z,98.07
2022-08-26T06:40:46.043Z,97.86
2022-08-26T06:41:46.271Z,98.07
2022-08-26T06:42:46.048Z,98.02
2022-08-26T06:43:46.017Z,97.96
2022-08-26T06:44:46.013Z,98.22
2022-08-26T06:46:07.039Z,98.16
2022-08-26T06:46:46.111Z,98.26
2022-08-26T06:47:45.996Z,98.22
2022-08-26T06:48:47.025Z,98.11
2022-08-26T06:49:45.948Z,97.72
2022-08-26T06:50:45.962Z,98.22
2022-08-26T06:51:45.961Z,98.11
2022-08-26T06:52:45.960Z,97.61
2022-08-26T06:53:45.905Z,97.87
2022-08-26T06:54:45.923Z,97.67
2022-08-26T06:55:45.889Z,97.47
2022-08-26T06:56:45.888Z,97.57
2022-08-26T06:57:45.865Z,97.27
2022-08-26T06:58:45.861Z,96.67
2022-08-26T06:59:45.848Z,96.87
2022-08-26T07:00:47.494Z,96.32
2022-08-26T07:01:46.461Z,96.52
2022-08-26T07:02:46.830Z,96.42
2022-08-26T07:03:46.558Z,95.82
2022-08-26T07:04:47.897Z,96.02
2022-08-26T07:05:47.824Z,95.32
2022-08-26T07:06:45.780Z,95.92
2022-08-26T07:07:45.762Z,95.82
2022-08-26T07:08:45.751Z,95.62
2022-08-26T07:09:45.739Z,95.57
2022-08-26T07:10:45.723Z,95.52
2022-08-26T07:11:45.761Z,95.52
2022-08-26T07:12:47.206Z,96.12
2022-08-26T07:13:45.697Z,95.32
2022-08-26T07:14:47.434Z,95.72
2022-08-26T07:15:46.825Z,95.72
2022-08-26T07:16:46.671Z,96.17
2022-08-26T07:17:45.654Z,96.12
2022-08-26T07:18:45.825Z,96.02
2022-08-26T07:19:45.649Z,95.52
2022-08-26T07:20:45.616Z,95.67
2022-08-26T07:21:46.672Z,95.27
2022-08-26T07:22:45.589Z,95.47
2022-08-26T07:23:45.586Z,95.47
2022-08-26T07:24:45.595Z,93.87
2022-08-26T07:25:45.560Z,95.17
2022-08-26T07:26:45.575Z,95.37
2022-08-26T07:27:45.559Z,94.32
2022-08-26T07:28:46.527Z,94.12
2022-08-26T07:29:45.540Z,94.43
2022-08-26T07:30:45.539Z,94.57
2022-08-26T07:31:45.498Z,94.37
2022-08-26T07:32:45.477Z,93.88
2022-08-26T07:33:46.512Z,94.02
2022-08-26T07:34:45.485Z,93.23
2022-08-26T07:35:45.451Z,94.43
2022-08-26T07:36:45.444Z,94.23
2022-08-26T07:37:45.437Z,94.12
2022-08-26T07:38:45.422Z,93.73
2022-08-26T07:39:45.402Z,93.58
2022-08-26T07:40:46.435Z,93.88
2022-08-26T07:41:45.378Z,93.88
2022-08-26T07:42:45.367Z,92.78
2022-08-26T07:43:45.353Z,92.98
2022-08-26T07:44:46.374Z,93.84
2022-08-26T07:45:45.466Z,92.78
2022-08-26T07:46:45.348Z,92.98
2022-08-26T07:47:46.337Z,92.93
2022-08-26T07:48:46.057Z,92.24
2022-08-26T07:49:45.386Z,92.24
2022-08-26T07:50:50.011Z,92.58
2022-08-26T07:51:45.271Z,92.58
2022-08-26T07:52:45.276Z,92.58
2022-08-26T07:53:45.275Z,92.78
2022-08-26T07:54:45.254Z,92.24
2022-08-26T07:55:46.291Z,92.58
2022-08-26T07:56:45.212Z,92.48
2022-08-26T07:57:45.204Z,92.38
2022-08-26T07:58:49.006Z,92.98
2022-08-26T07:59:46.196Z,92.78
2022-08-26T08:00:45.178Z,92.78
2022-08-26T08:01:45.480Z,92.78
2022-08-26T08:02:45.148Z,92.13
2022-08-26T08:03:45.196Z,92.74
2022-08-26T08:04:45.205Z,92.74
2022-08-26T08:05:46.376Z,92.43
2022-08-26T08:06:45.115Z,92.13
2022-08-26T08:07:45.584Z,92.24
2022-08-26T08:08:45.105Z,92.24
2022-08-26T08:09:45.089Z,91.63
2022-08-26T08:10:45.059Z,91.58
2022-08-26T08:11:45.046Z,91.67
2022-08-26T08:12:45.050Z,92.13
2022-08-26T08:13:45.071Z,92.24
2022-08-26T08:14:45.036Z,91.83
2022-08-26T08:15:45.034Z,92.33
2022-08-26T08:16:46.741Z,91.53
2022-08-26T08:17:45.043Z,91.39
2022-08-26T08:18:44.975Z,90.59
2022-08-26T08:19:44.979Z,90.99
2022-08-26T08:20:59.046Z,90.89
2022-08-26T08:21:46.877Z,91.09
2022-08-26T08:22:44.942Z,90.59
2022-08-26T08:23:44.950Z,90.69
2022-08-26T08:24:44.928Z,90.55
2022-08-26T08:25:44.915Z,90.55
2022-08-26T08:26:44.894Z,90.25
2022-08-26T08:27:44.882Z,90.35
2022-08-26T08:28:44.868Z,90.55
2022-08-26T08:29:44.862Z,89.95
2022-08-26T08:30:44.960Z,90.65
2022-08-26T08:31:57.930Z,90.05
2022-08-26T08:32:45.825Z,90.05
2022-08-26T08:33:44.816Z,90.15
2022-08-26T08:34:44.842Z,89.59
2022-08-26T08:35:44.792Z,90.25
2022-08-26T08:36:44.803Z,89.75
2022-08-26T08:37:44.823Z,89.55
2022-08-26T08:38:44.760Z,89.35
2022-08-26T08:39:45.825Z,89.99
2022-08-26T08:40:44.742Z,89.75
2022-08-26T08:41:44.744Z,89.35
2022-08-26T08:42:44.790Z,89.35
2022-08-26T08:43:44.714Z,89.25
2022-08-26T08:44:44.692Z,89.35
2022-08-26T08:45:47.199Z,89.35
2022-08-26T08:46:44.679Z,89.20
2022-08-26T08:47:45.344Z,89.40
2022-08-26T08:48:44.654Z,89.40
2022-08-26T08:49:44.644Z,88.81
2022-08-26T08:50:44.671Z,89.11
2022-08-26T08:51:44.647Z,88.96
2022-08-26T08:52:44.622Z,88.40
2022-08-26T08:53:44.602Z,88.90
2022-08-26T08:54:44.592Z,88.95
2022-08-26T08:55:44.599Z,88.51
2022-08-26T08:56:44.564Z,89.11
2022-08-26T08:57:44.551Z,88.81
2022-08-26T08:58:44.548Z,88.90
2022-08-26T08:59:44.555Z,87.96
2022-08-26T09:00:44.553Z,89.40
2022-08-26T09:01:45.561Z,89.06
2022-08-26T09:02:44.528Z,88.40
2022-08-26T09:03:47.461Z,88.81
2022-08-26T09:04:44.487Z,89.01
2022-08-26T09:05:48.644Z,89.01
2022-08-26T09:06:44.452Z,88.56
2022-08-26T09:07:47.385Z,88.76
2022-08-26T09:08:44.432Z,88.06
2022-08-26T09:09:44.429Z,89.40
2022-08-26T09:10:44.444Z,89.31
2022-08-26T09:11:44.396Z,89.36
2022-08-26T09:12:44.386Z,89.16
2022-08-26T09:13:50.884Z,88.56
2022-08-26T09:14:44.362Z,88.67
2022-08-26T09:15:44.389Z,88.67
2022-08-26T09:16:44.416Z,88.26
2022-08-26T09:17:44.330Z,88.56
2022-08-26T09:18:46.107Z,87.96
2022-08-26T09:19:44.892Z,88.31
2022-08-26T09:20:45.587Z,88.01
2022-08-26T09:21:44.417Z,89.01
2022-08-26T09:22:44.450Z,89.16
2022-08-26T09:23:49.510Z,88.46
2022-08-26T09:24:48.281Z,88.56
2022-08-26T09:25:44.938Z,88.76
2022-08-26T09:26:44.297Z,88.17
2022-08-26T09:27:44.225Z,88.37
2022-08-26T09:28:44.208Z,88.26
2022-08-26T09:29:44.344Z,88.32
2022-08-26T09:30:44.975Z,88.37
2022-08-26T09:31:45.195Z,88.76
2022-08-26T09:32:44.190Z,88.26
2022-08-26T09:33:45.894Z,88.26
2022-08-26T09:34:44.158Z,87.23
2022-08-26T09:35:44.155Z,87.52
2022-08-26T09:36:44.172Z,86.72
2022-08-26T09:38:46.894Z,88.22
2022-08-26T09:39:44.100Z,88.37
2022-08-26T09:40:44.104Z,88.26
2022-08-26T09:41:44.071Z,88.17
2022-08-26T09:42:45.491Z,88.32
2022-08-26T09:43:58.884Z,87.42
2022-08-26T09:44:45.932Z,88.42
2022-08-26T09:45:50.622Z,87.23
2022-08-26T09:46:45.031Z,87.52
2022-08-26T09:47:44.007Z,87.62
2022-08-26T09:48:44.032Z,87.02
2022-08-26T09:49:43.979Z,87.23
2022-08-26T09:50:43.983Z,87.66
2022-08-26T09:51:43.965Z,88.06
2022-08-26T09:52:45.027Z,88.17
2022-08-26T09:53:43.966Z,88.06
2022-08-26T09:54:43.942Z,88.17
2022-08-26T09:55:43.930Z,88.26
2022-08-26T09:56:46.905Z,88.76
2022-08-26T09:57:44.005Z,88.76
2022-08-26T09:58:44.113Z,88.32
2022-08-26T09:59:43.921Z,87.32
2022-08-26T10:00:43.879Z,87.32
2022-08-26T10:01:44.885Z,87.76
2022-08-26T10:02:47.457Z,88.06
2022-08-26T10:03:43.964Z,87.73
2022-08-26T10:04:43.903Z,87.27
2022-08-26T10:05:43.843Z,87.16
2022-08-26T10:06:43.800Z,87.57
2022-08-26T10:07:43.782Z,86.93
2022-08-26T10:08:44.121Z,86.63
2022-08-26T10:09:43.774Z,86.82
2022-08-26T10:10:45.063Z,87.02
2022-08-26T10:11:43.750Z,86.03
2022-08-26T10:12:43.805Z,86.63
2022-08-26T10:13:43.730Z,86.43
2022-08-26T10:15:50.002Z,85.93
2022-08-26T10:16:44.763Z,86.13
2022-08-26T10:17:43.687Z,86.33
2022-08-26T10:18:43.685Z,86.08
2022-08-26T10:19:56.957Z,86.13
2022-08-26T10:20:45.677Z,86.13
2022-08-26T10:21:43.631Z,86.43
2022-08-26T10:22:43.659Z,86.58
2022-08-26T10:23:43.629Z,85.99
2022-08-26T10:24:44.404Z,85.44
2022-08-26T10:25:43.599Z,85.55
2022-08-26T10:26:43.936Z,85.39
2022-08-26T10:27:51.242Z,84.99
2022-08-26T10:28:44.955Z,84.95
2022-08-26T10:29:43.553Z,84.35
2022-08-26T10:30:43.534Z,84.75
2022-08-26T10:31:43.581Z,85.85
2022-08-26T10:32:43.934Z,84.35
2022-08-26T10:33:44.397Z,84.35
2022-08-26T10:34:43.514Z,84.95
2022-08-26T10:35:43.490Z,84.55
2022-08-26T10:37:13.418Z,84.55
2022-08-26T10:37:44.455Z,84.89
2022-08-26T10:38:46.944Z,85.39
2022-08-26T10:39:43.932Z,85.39
2022-08-26T10:40:43.475Z,84.49
2022-08-26T10:41:44.404Z,85.39
2022-08-26T10:42:44.462Z,85.39
2022-08-26T10:43:43.416Z,85.78
2022-08-26T10:44:45.425Z,85.49
2022-08-26T10:45:46.958Z,85.74
2022-08-26T10:46:43.368Z,84.65
2022-08-26T10:47:43.366Z,84.65
2022-08-26T10:48:43.358Z,84.45
2022-08-26T10:49:43.334Z,84.69
2022-08-26T10:50:43.336Z,85.44
2022-08-26T10:51:45.633Z,85.55
2022-08-26T10:52:57.906Z,85.74
2022-08-26T10:53:44.318Z,85.88
2022-08-26T10:54:43.300Z,85.63
2022-08-26T10:55:44.306Z,85.33
2022-08-26T10:56:49.900Z,85.88
2022-08-26T10:57:43.237Z,85.99
2022-08-26T10:58:44.657Z,85.55
2022-08-26T10:59:44.321Z,85.25
2022-08-26T11:00:44.015Z,84.35
2022-08-26T11:01:43.381Z,83.95
2022-08-26T11:02:47.429Z,84.25
2022-08-26T11:03:43.199Z,84.31
2022-08-26T11:04:48.366Z,84.25
2022-08-26T11:05:43.162Z,84.45
2022-08-26T11:06:43.906Z,84.75
2022-08-26T11:07:43.908Z,84.79
2022-08-26T11:08:43.147Z,84.99
2022-08-26T11:09:43.320Z,85.09
2022-08-26T11:10:43.130Z,85.64
2022-08-26T11:11:43.106Z,85.94
2022-08-26T11:12:43.085Z,84.84
2022-08-26T11:13:43.075Z,84.41
2022-08-26T11:14:53.690Z,83.71
2022-08-26T11:15:44.914Z,84.31
2022-08-26T11:16:43.668Z,84.01
2022-08-26T11:17:43.041Z,83.41
2022-08-26T11:18:43.034Z,83.97
2022-08-26T11:20:00.283Z,83.77
2022-08-26T11:20:44.007Z,84.01
2022-08-26T11:21:42.993Z,83.91
2022-08-26T11:22:47.665Z,83.41
2022-08-26T11:23:42.967Z,83.91
2022-08-26T11:24:43.433Z,83.91
2022-08-26T11:25:42.974Z,83.91
2022-08-26T11:26:55.334Z,84.01
2022-08-26T11:27:43.956Z,83.91
2022-08-26T11:28:44.084Z,84.21
2022-08-26T11:29:42.903Z,83.17
2022-08-26T11:30:43.434Z,84.17
2022-08-26T11:31:42.949Z,83.81
2022-08-26T11:32:42.867Z,83.17
2022-08-26T11:33:42.943Z,83.07
2022-08-26T11:34:43.410Z,82.84
2022-08-26T11:35:43.849Z,81.90
2022-08-26T11:36:49.415Z,81.40
2022-08-26T11:37:42.816Z,80.51
2022-08-26T11:38:42.949Z,81.40
2022-08-26T11:39:46.274Z,81.01
2022-08-26T11:40:42.824Z,80.90
2022-08-26T11:41:42.800Z,82.20
2022-08-26T11:42:42.820Z,82.40
2022-08-26T11:43:42.756Z,80.51
2022-08-26T11:44:49.628Z,80.80
2022-08-26T11:45:43.780Z,81.70
2022-08-26T11:46:42.733Z,82.10
2022-08-26T11:47:43.421Z,81.26
2022-08-26T11:48:42.693Z,80.17
2022-08-26T11:49:42.952Z,80.60
2022-08-26T11:50:42.947Z,80.77
2022-08-26T11:51:46.419Z,81.10
2022-08-26T11:52:44.409Z,81.01
2022-08-26T11:53:43.426Z,81.40
2022-08-26T11:54:42.633Z,81.36
2022-08-26T11:55:43.664Z,80.00
2022-08-26T11:56:42.617Z,80.71
2022-08-26T11:57:42.604Z,81.44
2022-08-26T11:58:43.432Z,82.14
2022-08-26T11:59:42.640Z,82.43
2022-08-26T12:00:45.767Z,82.48
2022-08-26T12:01:43.414Z,82.64
2022-08-26T12:02:43.574Z,82.07
2022-08-26T12:03:42.609Z,81.74
2022-08-26T12:04:42.577Z,82.54
2022-08-26T12:05:43.458Z,81.54
2022-08-26T12:06:45.282Z,81.54
2022-08-26T12:07:42.764Z,81.54
2022-08-26T12:08:42.491Z,82.50
2022-08-26T12:09:42.475Z,82.50
2022-08-26T12:10:42.460Z,81.30
2022-08-26T12:11:42.944Z,81.80
2022-08-26T12:12:42.453Z,80.47
2022-08-26T12:13:42.422Z,80.47
2022-08-26T12:14:42.426Z,80.43
2022-08-26T12:15:42.420Z,79.33
2022-08-26T12:16:42.545Z,78.94
2022-08-26T12:17:42.381Z,79.43
2022-08-26T12:18:42.374Z,79.87
2022-08-26T12:19:42.403Z,79.73
2022-08-26T12:20:44.928Z,79.37
2022-08-26T12:21:42.365Z,79.24
2022-08-26T12:22:43.420Z,79.53
2022-08-26T12:23:43.477Z,79.33
2022-08-26T12:24:42.315Z,80.66
2022-08-26T12:25:42.292Z,80.47
2022-08-26T12:26:43.953Z,80.36
2022-08-26T12:27:42.287Z,80.77
2022-08-26T12:28:42.277Z,80.30
2022-08-26T12:30:03.258Z,80.71
2022-08-26T12:30:42.250Z,80.15
2022-08-26T12:31:42.263Z,81.01
2022-08-26T12:32:57.554Z,80.71
2022-08-26T12:33:43.458Z,80.60
2022-08-26T12:34:42.202Z,80.71
2022-08-26T12:35:42.452Z,80.00
2022-08-26T12:36:42.180Z,80.30
2022-08-26T12:37:42.213Z,80.17
2022-08-26T12:38:42.179Z,79.37
2022-08-26T12:39:42.145Z,79.57
2022-08-26T12:40:42.160Z,80.17
2022-08-26T12:41:42.118Z,80.41
2022-08-26T12:42:42.119Z,80.51
2022-08-26T12:43:42.464Z,80.27
2022-08-26T12:44:53.121Z,79.17
2022-08-26T12:45:43.152Z,79.43
2022-08-26T12:46:43.919Z,79.47
2022-08-26T12:47:43.782Z,79.77
2022-08-26T12:48:42.043Z,79.97
2022-08-26T12:49:42.933Z,80.33
2022-08-26T12:50:44.929Z,78.74
2022-08-26T12:51:49.975Z,78.44
2022-08-26T12:52:42.012Z,77.75
2022-08-26T12:53:42.935Z,78.14
2022-08-26T12:54:41.976Z,77.70